Elizaville, Kentucky
Current Conditions -  °F | °C
As of 6:55 AM on Friday 28 Nov 2014 (Local Time) from KFGX Reporting Station
Overcast Overcast  
Wind Chill: 24°   Ceiling: 3400
Heat Index: 24°   Visibility: 10mi
Dew Point: 21°   Wind: 3mph
Humidity: 89%   Direction: 250°WSW
Pressure: 30.42"   Gusts: NA
Location:  38.42°N, 83.83°W
Report Text: KFGX 281155Z AUTO 25003KT 10SM OVC034 M05/M06 A3042 RMK AO2 T10461061 11025 21052
Loading
Personal Weather Stations






























Interactive Weather Map New forecast layout! Learn more

10-Day Weather Forecast

Advertisements
Track Severe Weather on mobile